createdAt,value
2023-04-13T00:01:14.729Z,24.10
2023-04-13T00:03:48.156Z,19.70
2023-04-13T00:06:19.959Z,16.80
2023-04-13T00:08:50.264Z,19.80
2023-04-13T00:11:20.717Z,26.60
2023-04-13T00:13:51.039Z,22.10
2023-04-13T00:16:22.400Z,23.30
2023-04-13T00:18:54.445Z,17.10
2023-04-13T00:21:25.722Z,25.90
2023-04-13T00:23:56.708Z,45.90
2023-04-13T00:26:30.532Z,46.00
2023-04-13T00:29:01.740Z,24.30
2023-04-13T00:31:33.580Z,17.80
2023-04-13T00:34:04.361Z,25.80
2023-04-13T00:36:35.128Z,30.60
2023-04-13T00:39:06.131Z,20.50
2023-04-13T00:41:36.981Z,25.50
2023-04-13T00:44:08.762Z,31.10
2023-04-13T00:46:42.037Z,22.50
2023-04-13T00:49:13.472Z,22.40
2023-04-13T00:51:45.701Z,25.20
2023-04-13T00:54:17.938Z,18.50
2023-04-13T00:56:48.863Z,22.00
2023-04-13T00:59:21.169Z,20.40
2023-04-13T01:01:56.651Z,23.90
2023-04-13T01:04:27.927Z,19.00
2023-04-13T01:07:05.835Z,22.90
2023-04-13T01:09:42.735Z,30.10
2023-04-13T01:12:18.190Z,21.50
2023-04-13T01:14:53.001Z,26.40
2023-04-13T01:17:26.176Z,24.40
2023-04-13T01:20:01.067Z,18.40
2023-04-13T01:22:32.384Z,18.50
2023-04-13T01:25:18.577Z,28.40
2023-04-13T01:27:52.676Z,19.80
2023-04-13T01:30:25.963Z,30.00
2023-04-13T01:32:57.924Z,25.30
2023-04-13T01:35:29.399Z,22.30
2023-04-13T01:38:00.112Z,26.80
2023-04-13T01:40:32.571Z,20.50
2023-04-13T01:43:03.016Z,17.80
2023-04-13T01:45:38.140Z,23.80
2023-04-13T01:48:19.252Z,15.90
2023-04-13T01:50:52.578Z,20.40
2023-04-13T01:53:31.466Z,19.90
2023-04-13T01:56:05.060Z,22.60
2023-04-13T01:58:36.660Z,16.50
2023-04-13T02:01:08.973Z,23.80
2023-04-13T02:03:39.745Z,29.60
2023-04-13T02:06:11.293Z,15.30
2023-04-13T02:08:43.314Z,20.50
2023-04-13T02:11:14.873Z,15.00
2023-04-13T02:13:45.180Z,13.70
2023-04-13T02:16:15.622Z,16.50
2023-04-13T02:18:46.365Z,13.70
2023-04-13T02:21:17.664Z,12.00
2023-04-13T02:23:47.914Z,12.10
2023-04-13T02:26:18.880Z,10.90
2023-04-13T02:28:50.155Z,11.70
2023-04-13T02:31:23.168Z,12.20
2023-04-13T02:33:54.279Z,8.30
2023-04-13T02:36:24.663Z,10.60
2023-04-13T02:38:55.447Z,10.20
2023-04-13T02:41:25.773Z,8.40
2023-04-13T02:43:56.968Z,9.60
2023-04-13T02:46:29.358Z,11.80
2023-04-13T02:49:03.500Z,10.70
2023-04-13T02:51:33.999Z,11.30
2023-04-13T02:54:04.851Z,6.80
2023-04-13T02:56:35.575Z,6.90
2023-04-13T02:59:06.804Z,2.30
2023-04-13T03:01:37.578Z,2.10
2023-04-13T03:04:09.595Z,7.90
2023-04-13T03:06:42.527Z,5.60
2023-04-13T03:09:13.863Z,1.70
2023-04-13T03:11:44.421Z,3.10
2023-04-13T03:14:20.776Z,0.80
2023-04-13T03:16:51.676Z,0.80
2023-04-13T03:19:23.041Z,1.50
2023-04-13T03:21:53.901Z,0.70
2023-04-13T03:24:27.071Z,2.00
2023-04-13T03:26:58.094Z,3.30
2023-04-13T03:29:28.928Z,0.60
2023-04-13T03:31:59.427Z,0.90
2023-04-13T03:34:30.024Z,1.10
2023-04-13T03:37:00.498Z,0.30
2023-04-13T03:39:31.035Z,0.80
2023-04-13T03:42:02.328Z,0.80
2023-04-13T03:44:33.041Z,2.50
2023-04-13T03:47:03.521Z,0.40
2023-04-13T03:49:34.798Z,2.50
2023-04-13T03:52:05.782Z,1.20
2023-04-13T03:54:36.834Z,4.00
2023-04-13T03:57:07.752Z,3.20
2023-04-13T03:59:38.476Z,1.40
2023-04-13T04:02:09.076Z,1.60
2023-04-13T04:04:40.536Z,1.50
2023-04-13T04:07:11.580Z,2.30
2023-04-13T04:09:44.103Z,1.20
2023-04-13T04:12:15.678Z,1.90
2023-04-13T04:14:46.047Z,1.60
2023-04-13T04:17:17.139Z,2.50
2023-04-13T04:19:48.457Z,1.10
2023-04-13T04:22:19.398Z,1.50
2023-04-13T04:24:50.830Z,0.20
2023-04-13T04:27:21.534Z,1.00
2023-04-13T04:29:53.009Z,0.70
2023-04-13T04:32:24.197Z,1.20
2023-04-13T04:34:54.817Z,0.80
2023-04-13T04:37:26.175Z,1.10
2023-04-13T04:39:58.015Z,2.10
2023-04-13T04:42:28.945Z,0.70
2023-04-13T04:44:59.655Z,1.10
2023-04-13T04:47:30.669Z,1.50
2023-04-13T04:50:01.567Z,0.20
2023-04-13T04:52:32.789Z,0.80
2023-04-13T04:55:03.015Z,1.80
2023-04-13T04:57:33.893Z,1.40
2023-04-13T05:00:09.556Z,2.50
2023-04-13T05:02:40.443Z,1.10
2023-04-13T05:05:12.164Z,0.30
2023-04-13T05:07:42.552Z,1.30
2023-04-13T05:10:13.428Z,1.10
2023-04-13T05:12:44.345Z,0.80
2023-04-13T05:15:14.787Z,0.40
2023-04-13T05:17:46.792Z,0.80
2023-04-13T05:20:17.701Z,2.40
2023-04-13T05:22:48.617Z,0.40
2023-04-13T05:25:20.447Z,0.50
2023-04-13T05:27:51.828Z,0.90
2023-04-13T05:30:24.072Z,0.20
2023-04-13T05:32:55.102Z,0.30
2023-04-13T05:35:28.052Z,1.70
2023-04-13T05:37:59.904Z,2.70
2023-04-13T05:40:30.383Z,5.20
2023-04-13T05:43:00.825Z,3.50
2023-04-13T05:45:31.326Z,3.40
2023-04-13T05:48:01.661Z,0.60
2023-04-13T05:50:32.513Z,0.70
2023-04-13T05:53:05.304Z,1.60
2023-04-13T05:55:37.034Z,1.10
2023-04-13T05:58:08.541Z,1.70
2023-04-13T06:00:40.134Z,5.90
2023-04-13T06:03:10.903Z,2.30
2023-04-13T06:05:42.155Z,2.80
2023-04-13T06:08:13.318Z,2.50
2023-04-13T06:10:44.767Z,2.90
2023-04-13T06:13:15.608Z,2.50
2023-04-13T06:15:46.185Z,2.50
2023-04-13T06:18:16.669Z,1.50
2023-04-13T06:20:47.879Z,4.00
2023-04-13T06:23:18.826Z,4.40
2023-04-13T06:25:49.805Z,2.20
2023-04-13T06:28:21.405Z,6.20
2023-04-13T06:30:59.948Z,3.00
2023-04-13T06:33:33.531Z,2.10
2023-04-13T06:36:05.564Z,3.30
2023-04-13T06:38:36.115Z,1.00
2023-04-13T06:41:07.983Z,1.90
2023-04-13T06:43:38.681Z,2.80
2023-04-13T06:46:09.695Z,2.80
2023-04-13T06:48:43.346Z,1.70
2023-04-13T06:51:19.713Z,1.20
2023-04-13T06:53:51.167Z,1.30
2023-04-13T06:56:21.850Z,3.40
2023-04-13T06:58:55.027Z,0.80
2023-04-13T07:01:27.455Z,4.80
2023-04-13T07:03:59.109Z,3.00
2023-04-13T07:06:31.840Z,1.70
2023-04-13T07:09:02.197Z,2.40
2023-04-13T07:11:32.440Z,2.40
2023-04-13T07:14:03.645Z,2.60
2023-04-13T07:16:34.214Z,4.00
2023-04-13T07:19:05.687Z,2.60
2023-04-13T07:21:36.048Z,4.00
2023-04-13T07:24:09.055Z,3.10
2023-04-13T07:26:41.585Z,3.00
2023-04-13T07:29:13.327Z,2.50
2023-04-13T07:31:44.217Z,1.40
2023-04-13T07:34:15.614Z,4.40
2023-04-13T07:36:47.263Z,4.60
2023-04-13T07:39:18.226Z,2.60
2023-04-13T07:41:49.225Z,2.10
2023-04-13T07:44:19.501Z,2.20
2023-04-13T07:46:50.586Z,5.60
2023-04-13T07:49:22.752Z,2.50
2023-04-13T07:51:53.376Z,6.20
2023-04-13T07:54:23.707Z,4.50
2023-04-13T07:56:56.332Z,3.00
2023-04-13T07:59:26.725Z,2.10
2023-04-13T08:01:57.622Z,3.80
2023-04-13T08:04:28.501Z,3.00
2023-04-13T08:07:09.056Z,4.70
2023-04-13T08:09:41.418Z,3.40
2023-04-13T08:12:13.630Z,2.50
2023-04-13T08:14:44.345Z,2.50
2023-04-13T08:17:15.433Z,2.40
2023-04-13T08:19:46.078Z,3.30
2023-04-13T08:22:16.920Z,1.70
2023-04-13T08:24:47.685Z,2.00
2023-04-13T08:27:20.726Z,3.20
2023-04-13T08:29:56.530Z,0.80
2023-04-13T08:32:27.184Z,1.00
2023-04-13T08:34:59.392Z,4.20
2023-04-13T08:37:33.421Z,2.60
2023-04-13T08:40:07.204Z,0.80
2023-04-13T08:42:38.522Z,3.10
2023-04-13T08:45:11.255Z,1.90
2023-04-13T08:47:42.627Z,1.70
2023-04-13T08:50:14.494Z,3.60
2023-04-13T08:52:45.384Z,6.60
2023-04-13T08:55:16.152Z,2.30
2023-04-13T08:57:51.393Z,2.20
2023-04-13T09:00:23.601Z,2.50
2023-04-13T09:03:04.816Z,2.80
2023-04-13T09:05:41.821Z,4.00
2023-04-13T09:08:16.801Z,2.70
2023-04-13T09:10:47.522Z,3.90
2023-04-13T09:13:19.926Z,3.60
2023-04-13T09:15:51.147Z,2.20
2023-04-13T09:18:22.121Z,2.60
2023-04-13T09:21:00.445Z,1.90
2023-04-13T09:23:31.975Z,1.00
2023-04-13T09:26:10.316Z,1.00
2023-04-13T09:28:51.091Z,1.00
2023-04-13T09:31:22.188Z,1.50
2023-04-13T09:33:53.920Z,1.00
2023-04-13T09:36:24.374Z,1.40
2023-04-13T09:38:59.810Z,1.80
2023-04-13T09:41:35.029Z,3.40
2023-04-13T09:44:18.016Z,1.60
2023-04-13T09:47:11.570Z,1.50
2023-04-13T09:49:51.975Z,2.80
2023-04-13T09:52:24.294Z,4.30
2023-04-13T09:54:59.970Z,2.00
2023-04-13T09:57:36.331Z,1.20
2023-04-13T10:00:15.721Z,2.40
2023-04-13T10:02:47.792Z,1.30
2023-04-13T10:05:19.316Z,2.40
2023-04-13T10:07:51.404Z,2.00
2023-04-13T10:10:22.591Z,2.10
2023-04-13T10:12:56.290Z,1.20
2023-04-13T10:15:50.302Z,1.20
2023-04-13T10:18:30.460Z,2.60
2023-04-13T10:21:02.312Z,1.80
2023-04-13T10:23:38.759Z,0.90
2023-04-13T10:26:09.745Z,2.70
2023-04-13T10:28:49.437Z,0.30
2023-04-13T10:31:25.310Z,2.00
2023-04-13T10:33:57.277Z,5.80
2023-04-13T10:36:38.656Z,1.30
2023-04-13T10:39:09.454Z,0.80
2023-04-13T10:41:40.111Z,1.90
2023-04-13T10:44:10.765Z,5.80
2023-04-13T10:46:51.961Z,1.00
2023-04-13T10:49:32.520Z,2.60
2023-04-13T10:52:03.635Z,2.20
2023-04-13T10:54:36.047Z,0.40
2023-04-13T10:57:08.807Z,2.50
2023-04-13T10:59:59.105Z,1.10
2023-04-13T11:02:42.665Z,1.00
2023-04-13T11:05:29.000Z,4.10
2023-04-13T11:08:22.080Z,4.30
2023-04-13T11:11:02.493Z,3.10
2023-04-13T11:13:40.269Z,0.70
2023-04-13T11:16:11.926Z,1.70
2023-04-13T11:18:44.034Z,1.40
2023-04-13T11:21:18.748Z,0.40
2023-04-13T11:23:55.236Z,1.00
2023-04-13T11:26:38.242Z,2.10
2023-04-13T11:29:21.128Z,1.30
2023-04-13T11:31:55.241Z,2.30
2023-04-13T11:34:28.351Z,1.60
2023-04-13T11:37:05.314Z,1.80
2023-04-13T11:39:38.384Z,2.00
2023-04-13T11:42:14.356Z,2.30
2023-04-13T11:44:46.091Z,6.60
2023-04-13T11:47:19.825Z,7.70
2023-04-13T11:49:51.538Z,7.50
2023-04-13T11:52:22.481Z,0.60
2023-04-13T11:54:54.062Z,0.80
2023-04-13T11:57:25.371Z,5.60
2023-04-13T11:59:58.986Z,8.00
2023-04-13T12:02:33.444Z,3.60
2023-04-13T12:05:08.130Z,1.20
2023-04-13T12:07:54.452Z,2.90
2023-04-13T12:10:46.923Z,2.30
2023-04-13T12:14:05.813Z,3.10
2023-04-13T12:19:30.242Z,7.10
2023-04-13T12:22:02.703Z,4.70
2023-04-13T12:24:45.751Z,1.00
2023-04-13T12:27:19.179Z,1.90
2023-04-13T12:29:56.524Z,0.60
2023-04-13T12:32:27.506Z,2.40
2023-04-13T12:34:58.131Z,1.30
2023-04-13T12:37:28.551Z,2.20
2023-04-13T12:39:59.491Z,2.40
2023-04-13T12:42:31.160Z,1.40
2023-04-13T12:45:01.602Z,2.60
2023-04-13T12:47:32.149Z,4.60
2023-04-13T12:50:03.115Z,1.60
2023-04-13T12:52:43.754Z,2.80
2023-04-13T12:55:16.493Z,0.60
2023-04-13T12:57:47.317Z,3.20
2023-04-13T13:00:22.169Z,1.20
2023-04-13T13:03:06.223Z,0.70
2023-04-13T13:05:50.792Z,4.10
2023-04-13T13:08:25.099Z,1.60
2023-04-13T13:37:49.709Z,1.70
2023-04-13T13:40:20.589Z,0.80
2023-04-13T13:42:52.220Z,2.00
2023-04-13T13:45:25.509Z,0.90
2023-04-13T13:47:59.848Z,0.90
2023-04-13T13:50:30.592Z,0.70
2023-04-13T13:53:04.854Z,1.50
2023-04-13T13:55:35.825Z,1.70
2023-04-13T13:58:06.411Z,1.60
2023-04-13T14:00:38.642Z,1.00
2023-04-13T14:03:12.390Z,2.10
2023-04-13T14:05:45.459Z,0.80
2023-04-13T14:08:16.128Z,6.10
2023-04-13T14:10:49.608Z,5.50
2023-04-13T14:13:20.591Z,1.20
2023-04-13T14:15:51.630Z,1.60
2023-04-13T14:18:23.744Z,1.90
2023-04-13T14:20:57.411Z,1.80
2023-04-13T14:23:31.858Z,1.30
2023-04-13T14:26:13.590Z,2.60
2023-04-13T14:28:54.941Z,7.10
2023-04-13T14:31:25.388Z,3.30
2023-04-13T14:33:56.412Z,2.50
2023-04-13T14:36:27.285Z,1.50
2023-04-13T14:39:00.032Z,2.40
2023-04-13T14:41:31.515Z,2.80
2023-04-13T14:44:02.464Z,2.70
2023-04-13T14:46:34.348Z,0.80
2023-04-13T14:49:05.944Z,5.10
2023-04-13T14:51:44.140Z,8.50
2023-04-13T14:54:22.195Z,3.60
2023-04-13T14:56:54.857Z,4.50
2023-04-13T14:59:30.124Z,2.00
2023-04-13T15:02:08.400Z,1.20
2023-04-13T15:04:42.287Z,3.10
2023-04-13T15:07:13.386Z,2.70
2023-04-13T15:09:44.483Z,3.00
2023-04-13T15:12:20.800Z,1.60
2023-04-13T15:14:55.638Z,5.00
2023-04-13T15:17:26.264Z,1.20
2023-04-13T15:19:58.011Z,1.30
2023-04-13T15:22:31.109Z,0.80
2023-04-13T15:25:03.020Z,1.60
2023-04-13T15:27:35.974Z,2.90
2023-04-13T15:30:10.056Z,0.60
2023-04-13T15:32:42.703Z,9.20
2023-04-13T15:35:13.480Z,0.60
2023-04-13T15:37:44.102Z,0.80
2023-04-13T15:40:15.286Z,0.70
2023-04-13T15:42:46.122Z,1.00
2023-04-13T15:45:17.527Z,4.30
2023-04-13T15:47:48.595Z,0.70
2023-04-13T15:50:19.527Z,2.70
2023-04-13T15:52:52.517Z,0.80
2023-04-13T15:55:24.313Z,3.30
2023-04-13T15:57:56.885Z,1.60
2023-04-13T16:00:29.294Z,1.70
2023-04-13T16:03:02.561Z,1.00
2023-04-13T16:05:34.075Z,1.10
2023-04-13T16:08:05.055Z,1.90
2023-04-13T16:10:38.348Z,2.60
2023-04-13T16:13:19.381Z,1.20
2023-04-13T16:15:53.344Z,1.50
2023-04-13T16:18:26.102Z,2.40
2023-04-13T16:20:58.009Z,1.40
2023-04-13T16:23:29.396Z,3.50
2023-04-13T16:25:59.885Z,0.70
2023-04-13T16:28:31.237Z,3.80
2023-04-13T16:31:03.507Z,2.20
2023-04-13T16:33:35.480Z,0.80
2023-04-13T16:36:12.993Z,0.60
2023-04-13T16:38:49.323Z,0.50
2023-04-13T16:41:20.644Z,2.70
2023-04-13T16:43:52.701Z,0.70
2023-04-13T16:46:27.272Z,1.10
2023-04-13T16:48:59.193Z,2.20
2023-04-13T16:51:33.344Z,2.00
2023-04-13T16:54:06.183Z,1.20
2023-04-13T16:56:43.058Z,1.80
2023-04-13T16:59:15.721Z,7.80
2023-04-13T17:01:49.117Z,3.50
2023-04-13T17:04:19.777Z,1.10
2023-04-13T17:06:59.384Z,2.50
2023-04-13T17:09:31.371Z,2.00
2023-04-13T17:12:06.400Z,3.40
2023-04-13T17:14:41.658Z,1.50
2023-04-13T17:17:15.658Z,1.40
2023-04-13T17:19:47.167Z,1.60
2023-04-13T17:22:20.546Z,8.50
2023-04-13T17:24:52.425Z,2.40
2023-04-13T17:27:30.210Z,1.00
2023-04-13T17:30:04.059Z,0.50
2023-04-13T17:32:40.254Z,1.50
2023-04-13T17:35:30.156Z,4.10
2023-04-13T17:38:11.781Z,1.20
2023-04-13T17:40:58.946Z,6.30
2023-04-13T17:43:32.950Z,2.00
2023-04-13T17:46:16.053Z,3.10
2023-04-13T17:49:04.930Z,3.00
2023-04-13T17:51:58.045Z,2.00
2023-04-13T17:54:33.707Z,1.10
2023-04-13T17:57:14.971Z,0.80
2023-04-13T17:59:50.286Z,1.20
2023-04-13T18:02:29.860Z,1.00
2023-04-13T18:05:02.866Z,4.10
2023-04-13T18:07:33.606Z,0.30
2023-04-13T18:10:05.733Z,7.10
2023-04-13T18:12:43.509Z,1.30
2023-04-13T18:15:15.017Z,1.00
2023-04-13T18:17:47.831Z,0.60
2023-04-13T18:20:20.178Z,3.20
2023-04-13T18:22:55.673Z,2.30
2023-04-13T18:25:27.803Z,2.00
2023-04-13T18:28:02.086Z,2.30
2023-04-13T18:30:32.868Z,1.10
2023-04-13T18:33:07.486Z,0.70
2023-04-13T18:35:43.156Z,0.80
2023-04-13T18:38:13.727Z,1.60
2023-04-13T18:40:45.666Z,2.00
2023-04-13T18:43:20.947Z,0.60
2023-04-13T18:45:52.654Z,4.70
2023-04-13T18:48:24.740Z,1.10
2023-04-13T18:50:55.879Z,5.30
2023-04-13T18:53:26.727Z,0.70
2023-04-13T18:55:59.696Z,1.40
2023-04-13T18:58:30.607Z,0.70
2023-04-13T19:01:02.447Z,7.00
2023-04-13T19:03:34.160Z,3.70
2023-04-13T19:06:05.366Z,1.30
2023-04-13T19:08:42.382Z,3.00
2023-04-13T19:11:15.827Z,1.90
2023-04-13T19:13:47.872Z,1.50
2023-04-13T19:16:22.045Z,4.20
2023-04-13T19:18:52.593Z,2.80
2023-04-13T19:21:24.406Z,3.50
2023-04-13T19:23:58.388Z,1.80
2023-04-13T19:26:37.751Z,1.40
2023-04-13T19:29:08.464Z,1.60
2023-04-13T19:31:41.597Z,2.30
2023-04-13T19:34:14.589Z,2.50
2023-04-13T19:36:50.885Z,2.60
2023-04-13T19:39:21.458Z,2.30
2023-04-13T19:41:52.296Z,2.10
2023-04-13T19:44:24.093Z,2.00
2023-04-13T19:46:59.344Z,2.30
2023-04-13T19:49:30.800Z,2.20
2023-04-13T19:52:04.859Z,2.00
2023-04-13T19:54:35.929Z,2.00
2023-04-13T19:57:06.493Z,1.80
2023-04-13T19:59:37.475Z,2.70
2023-04-13T20:02:10.134Z,2.00
2023-04-13T20:04:44.692Z,2.60
2023-04-13T20:07:15.466Z,3.00
2023-04-13T20:09:46.797Z,3.40
2023-04-13T20:12:18.031Z,2.40
2023-04-13T20:14:50.561Z,3.70
2023-04-13T20:17:21.072Z,1.70
2023-04-13T20:19:53.976Z,2.30
2023-04-13T20:22:26.186Z,2.40
2023-04-13T20:24:59.505Z,2.60
2023-04-13T20:27:41.979Z,2.20
2023-04-13T20:30:14.654Z,2.10
2023-04-13T20:32:45.984Z,2.50
2023-04-13T20:35:17.052Z,1.80
2023-04-13T20:37:47.814Z,2.80
2023-04-13T20:40:27.474Z,2.60
2023-04-13T20:42:59.162Z,2.20
2023-04-13T20:45:33.150Z,1.50
2023-04-13T20:50:43.891Z,5.40
2023-04-13T20:53:17.926Z,3.30
2023-04-13T20:55:49.731Z,2.40
2023-04-13T20:58:20.310Z,2.10
2023-04-13T21:00:50.978Z,1.90
2023-04-13T21:03:23.979Z,2.50
2023-04-13T21:05:55.807Z,1.50
2023-04-13T21:08:27.259Z,1.80
2023-04-13T21:11:00.721Z,3.80
2023-04-13T21:13:31.386Z,2.50
2023-04-13T21:16:02.583Z,3.30
2023-04-13T21:18:34.117Z,3.90
2023-04-13T21:21:05.186Z,2.70
2023-04-13T21:23:37.048Z,1.80
2023-04-13T21:26:09.345Z,2.20
2023-04-13T21:28:39.938Z,3.00
2023-04-13T21:31:10.838Z,2.10
2023-04-13T21:33:42.832Z,2.70
2023-04-13T21:38:47.177Z,1.70
2023-04-13T21:41:18.589Z,1.80
2023-04-13T21:43:49.390Z,1.70
2023-04-13T21:46:24.679Z,2.20
2023-04-13T21:48:56.392Z,3.10
2023-04-13T21:51:51.418Z,1.60
2023-04-13T21:54:22.278Z,1.30
2023-04-13T21:56:52.477Z,2.20
2023-04-13T21:59:26.945Z,1.80
2023-04-13T22:01:57.125Z,4.10
2023-04-13T22:04:27.646Z,2.10
2023-04-13T22:06:58.108Z,2.20
2023-04-13T22:09:29.234Z,2.40
2023-04-13T22:11:59.851Z,2.10
2023-04-13T22:14:31.268Z,2.00
2023-04-13T22:17:01.837Z,1.90
2023-04-13T22:19:32.389Z,1.80
2023-04-13T22:22:02.787Z,2.10
2023-04-13T22:24:33.297Z,2.80
2023-04-13T22:27:04.931Z,2.80
2023-04-13T22:29:35.332Z,2.40
2023-04-13T22:32:06.104Z,2.60
2023-04-13T22:34:36.441Z,2.10
2023-04-13T22:37:08.185Z,2.30
2023-04-13T22:39:38.565Z,3.90
2023-04-13T22:42:08.911Z,2.20
2023-04-13T22:44:39.541Z,3.60
2023-04-13T22:47:10.777Z,2.80
2023-04-13T22:49:42.663Z,2.80
2023-04-13T22:52:13.092Z,2.60
2023-04-13T22:54:43.295Z,3.10
2023-04-13T22:57:16.823Z,2.40
2023-04-13T22:59:47.126Z,2.90
2023-04-13T23:02:17.530Z,2.30
2023-04-13T23:04:48.531Z,1.90
2023-04-13T23:07:19.053Z,2.80
2023-04-13T23:09:53.026Z,2.70
2023-04-13T23:12:25.174Z,2.10
2023-04-13T23:14:57.012Z,2.90
2023-04-13T23:17:28.793Z,1.90
2023-04-13T23:19:59.952Z,2.10
2023-04-13T23:22:31.137Z,2.60
2023-04-13T23:25:01.708Z,1.90
2023-04-13T23:27:32.249Z,2.10
2023-04-13T23:30:03.109Z,1.70
2023-04-13T23:32:33.863Z,1.90
2023-04-13T23:35:04.343Z,1.80
2023-04-13T23:37:34.835Z,1.70
2023-04-13T23:40:06.485Z,1.60
2023-04-13T23:42:36.881Z,1.60
2023-04-13T23:45:09.489Z,5.50
2023-04-13T23:47:39.794Z,1.70
2023-04-13T23:50:11.661Z,1.90
2023-04-13T23:52:42.001Z,1.90
2023-04-13T23:55:12.630Z,2.00
2023-04-13T23:57:43.279Z,1.60
